createdAt,value
2022-09-20T00:01:11.729Z,99970.72
2022-09-20T00:03:59.695Z,99946.31
2022-09-20T00:06:43.475Z,99970.31
2022-09-20T00:09:27.337Z,99958.00
2022-09-20T00:12:11.010Z,99947.59
2022-09-20T00:14:54.888Z,99962.66
2022-09-20T00:17:38.684Z,99944.63
2022-09-20T00:20:23.961Z,99950.38
2022-09-20T00:23:07.697Z,99939.66
2022-09-20T00:26:02.239Z,99950.16
2022-09-20T00:28:47.198Z,99950.16
2022-09-20T00:31:31.067Z,99939.53
2022-09-20T00:34:32.643Z,99932.81
2022-09-20T00:37:17.770Z,99938.59
2022-09-20T00:40:01.779Z,99939.72
2022-09-20T00:42:48.400Z,99931.47
2022-09-20T00:45:32.842Z,99908.31
2022-09-20T00:48:26.056Z,99928.16
2022-09-20T00:51:15.746Z,99933.13
2022-09-20T00:54:04.701Z,99920.34
2022-09-20T00:56:48.585Z,99923.06
2022-09-20T00:59:36.224Z,99918.72
2022-09-20T01:02:25.165Z,99925.03
2022-09-20T01:05:11.566Z,99930.50
2022-09-20T01:07:56.117Z,99919.69
2022-09-20T01:10:41.257Z,99918.72
2022-09-20T01:13:24.941Z,99918.72
2022-09-20T01:16:10.376Z,99890.34
2022-09-20T01:18:57.353Z,99774.59
2022-09-20T01:21:41.375Z,99921.69
2022-09-20T01:24:33.328Z,99914.56
2022-09-20T01:27:25.696Z,99914.19
2022-09-20T01:30:14.791Z,99934.66
2022-09-20T01:33:08.710Z,99890.03
2022-09-20T01:35:56.182Z,99930.47
2022-09-20T01:38:45.405Z,99936.22
2022-09-20T01:41:34.994Z,99923.03
2022-09-20T01:44:23.988Z,99937.38
2022-09-20T01:47:20.347Z,99929.72
2022-09-20T01:50:13.580Z,99930.81
2022-09-20T01:53:27.019Z,99930.13
2022-09-20T01:56:47.043Z,99924.50
2022-09-20T01:59:56.731Z,99920.81
2022-09-20T02:03:08.896Z,99911.88
2022-09-20T02:06:24.635Z,99905.75
2022-09-20T02:09:24.045Z,99918.03
2022-09-20T02:12:33.515Z,99920.00
2022-09-20T02:15:36.519Z,99907.75
2022-09-20T02:18:39.394Z,99905.09
2022-09-20T02:21:31.467Z,99919.66
2022-09-20T02:24:24.580Z,99910.63
2022-09-20T02:27:17.963Z,99913.22
2022-09-20T02:30:16.707Z,99899.59
2022-09-20T02:33:21.795Z,99905.03
2022-09-20T02:36:23.067Z,99904.91
2022-09-20T02:39:14.110Z,99915.94
2022-09-20T02:42:04.760Z,99906.38
2022-09-20T02:44:58.390Z,99891.69
2022-09-20T02:47:45.023Z,99903.00
2022-09-20T02:50:38.537Z,99916.66
2022-09-20T02:53:36.335Z,99911.78
2022-09-20T02:56:28.106Z,99912.19
2022-09-20T02:59:30.967Z,99913.56
2022-09-20T03:02:24.314Z,99906.56
2022-09-20T03:05:16.551Z,99916.19
2022-09-20T03:08:14.339Z,99920.97
2022-09-20T03:11:09.224Z,99930.97
2022-09-20T03:14:06.624Z,99927.00
2022-09-20T03:17:08.240Z,99928.81
2022-09-20T03:20:08.067Z,99936.28
2022-09-20T03:22:59.491Z,99935.78
2022-09-20T03:25:54.228Z,99933.31
2022-09-20T03:28:58.704Z,99930.84
2022-09-20T03:31:57.464Z,99936.00
2022-09-20T03:34:51.846Z,99941.75
2022-09-20T03:37:51.177Z,99944.78
2022-09-20T03:41:13.735Z,99952.41
2022-09-20T03:44:17.244Z,99946.94
2022-09-20T03:47:09.761Z,99954.16
2022-09-20T03:50:28.974Z,99942.63
2022-09-20T03:53:47.939Z,99969.88
2022-09-20T03:56:59.243Z,99975.25
2022-09-20T04:00:16.259Z,99953.44
2022-09-20T04:03:38.294Z,99984.25
2022-09-20T04:06:41.360Z,99969.59
2022-09-20T04:09:44.667Z,99938.47
2022-09-20T04:12:36.799Z,99982.69
2022-09-20T04:15:32.508Z,99985.91
2022-09-20T04:18:28.793Z,99981.09
2022-09-20T04:21:17.481Z,99982.75
2022-09-20T04:24:06.975Z,100002.63
2022-09-20T04:26:56.878Z,99992.47
2022-09-20T04:29:46.049Z,99983.91
2022-09-20T04:32:37.493Z,99993.19
2022-09-20T04:35:54.571Z,100005.34
2022-09-20T04:38:38.970Z,99994.19
2022-09-20T04:41:49.904Z,99998.31
2022-09-20T04:44:48.977Z,100001.19
2022-09-20T04:48:01.562Z,100002.94
2022-09-20T04:51:33.490Z,100003.59
2022-09-20T04:54:48.407Z,99996.00
2022-09-20T04:58:05.092Z,99993.59
2022-09-20T05:01:19.638Z,100007.81
2022-09-20T05:05:01.436Z,99968.59
2022-09-20T05:08:20.913Z,100005.75
2022-09-20T05:11:37.854Z,100016.59
2022-09-20T05:14:53.694Z,100027.25
2022-09-20T05:17:55.469Z,100015.13
2022-09-20T05:20:59.598Z,100020.44
2022-09-20T05:24:10.727Z,100017.59
2022-09-20T05:27:09.312Z,100007.34
2022-09-20T05:30:04.859Z,100016.38
2022-09-20T05:32:56.888Z,100037.53
2022-09-20T05:35:47.499Z,100010.59
2022-09-20T05:38:47.346Z,100050.41
2022-09-20T05:41:39.592Z,100055.88
2022-09-20T05:44:32.720Z,100011.31
2022-09-20T05:47:20.814Z,100053.56
2022-09-20T05:50:17.520Z,100056.66
2022-09-20T05:53:26.242Z,100030.38
2022-09-20T05:56:19.970Z,100047.44
2022-09-20T05:59:18.120Z,100055.44
2022-09-20T06:02:16.680Z,100052.53
2022-09-20T06:05:04.733Z,100046.38
2022-09-20T06:08:09.790Z,100053.38
2022-09-20T06:11:37.443Z,100031.06
2022-09-20T06:14:34.701Z,100061.69
2022-09-20T06:17:27.697Z,100051.91
2022-09-20T06:20:22.235Z,100063.69
2022-09-20T06:23:07.333Z,100063.34
2022-09-20T06:25:56.258Z,100045.94
2022-09-20T06:28:44.333Z,100065.50
2022-09-20T06:31:28.619Z,100065.94
2022-09-20T06:34:16.695Z,100056.56
2022-09-20T06:37:30.150Z,100068.19
2022-09-20T06:40:41.927Z,100068.03
2022-09-20T06:43:26.107Z,100076.06
2022-09-20T06:46:11.999Z,100076.03
2022-09-20T06:48:56.322Z,100087.13
2022-09-20T06:51:41.289Z,100069.38
2022-09-20T06:54:27.164Z,100075.16
2022-09-20T06:57:12.405Z,100074.59
2022-09-20T06:59:56.330Z,100078.84
2022-09-20T07:02:41.521Z,100074.00
2022-09-20T07:05:26.663Z,100074.44
2022-09-20T07:08:10.569Z,100064.53
2022-09-20T07:10:54.703Z,100070.97
2022-09-20T07:13:38.395Z,100066.72
2022-09-20T07:16:22.898Z,100074.69
2022-09-20T07:19:08.293Z,100065.94
2022-09-20T07:21:52.096Z,100083.63
2022-09-20T07:24:36.487Z,100082.03
2022-09-20T07:27:21.314Z,100094.22
2022-09-20T07:30:05.809Z,100094.19
2022-09-20T07:32:50.382Z,100086.88
2022-09-20T07:35:36.455Z,100093.22
2022-09-20T07:38:20.230Z,100080.03
2022-09-20T07:41:04.440Z,100085.38
2022-09-20T07:43:48.443Z,100083.75
2022-09-20T07:46:36.195Z,100083.44
2022-09-20T07:49:20.454Z,100084.66
2022-09-20T07:52:05.801Z,100075.41
2022-09-20T07:54:50.082Z,100068.00
2022-09-20T07:57:37.305Z,100067.19
2022-09-20T08:00:21.365Z,100083.34
2022-09-20T08:03:06.116Z,100059.13
2022-09-20T08:05:50.584Z,100064.22
2022-09-20T08:08:37.619Z,100061.75
2022-09-20T08:11:27.774Z,100072.38
2022-09-20T08:14:15.159Z,100066.28
2022-09-20T08:17:00.271Z,100051.41
2022-09-20T08:19:44.957Z,100062.84
2022-09-20T08:22:28.683Z,100075.53
2022-09-20T08:25:13.891Z,100068.06
2022-09-20T08:27:57.646Z,100064.44
2022-09-20T08:30:41.552Z,100067.72
2022-09-20T08:33:25.354Z,100068.69
2022-09-20T08:36:11.685Z,100052.34
2022-09-20T08:42:13.029Z,100051.59
2022-09-20T08:45:00.723Z,100054.66
2022-09-20T08:47:50.268Z,100003.13
2022-09-20T08:50:35.073Z,100051.25
2022-09-20T08:53:21.439Z,100032.41
2022-09-20T08:56:09.273Z,100042.63
2022-09-20T08:58:56.550Z,100019.91
2022-09-20T09:01:40.296Z,100047.59
2022-09-20T09:04:25.924Z,100022.63
2022-09-20T09:07:13.708Z,100025.50
2022-09-20T09:09:58.206Z,100002.97
2022-09-20T09:12:48.648Z,100019.91
2022-09-20T09:15:37.390Z,100007.50
2022-09-20T09:18:21.353Z,100027.91
2022-09-20T09:21:07.774Z,100003.53
2022-09-20T09:23:58.034Z,100012.03
2022-09-20T09:26:44.278Z,99993.31
2022-09-20T09:29:31.706Z,100017.66
2022-09-20T09:32:25.230Z,100010.59
2022-09-20T09:35:25.269Z,100030.47
2022-09-20T09:38:19.637Z,100025.53
2022-09-20T09:41:05.336Z,100011.56
2022-09-20T09:44:00.663Z,99996.50
2022-09-20T09:46:44.481Z,100016.00
2022-09-20T09:49:34.187Z,100021.09
2022-09-20T09:52:25.740Z,100000.69
2022-09-20T09:55:15.195Z,100013.59
2022-09-20T09:58:08.691Z,100016.59
2022-09-20T10:00:54.446Z,100017.50
2022-09-20T10:03:53.775Z,100028.63
2022-09-20T10:06:50.567Z,100006.09
2022-09-20T10:09:53.227Z,100000.63
2022-09-20T10:12:52.873Z,100013.81
2022-09-20T10:15:42.867Z,100003.72
2022-09-20T10:18:42.703Z,100011.72
2022-09-20T10:21:41.425Z,100013.19
2022-09-20T10:24:42.039Z,100016.31
2022-09-20T10:27:44.921Z,100007.31
2022-09-20T10:30:42.170Z,100022.63
2022-09-20T10:33:37.605Z,100002.56
2022-09-20T10:36:30.751Z,100003.91
2022-09-20T10:39:20.474Z,100011.03
2022-09-20T10:42:39.902Z,100013.56
2022-09-20T10:46:03.348Z,100012.13
2022-09-20T10:48:35.563Z,100014.69
2022-09-20T10:51:32.907Z,100015.22
2022-09-20T10:54:34.718Z,99998.09
2022-09-20T10:57:46.901Z,100006.78
2022-09-20T11:00:43.503Z,99995.38
2022-09-20T11:03:43.641Z,99987.44
2022-09-20T11:06:41.396Z,99996.97
2022-09-20T11:09:31.002Z,99990.38
2022-09-20T11:12:24.968Z,99970.47
2022-09-20T11:15:18.275Z,99957.22
2022-09-20T11:18:09.856Z,99980.91
2022-09-20T11:21:02.860Z,100000.13
2022-09-20T11:23:53.142Z,99979.22
2022-09-20T11:26:41.098Z,99989.00
2022-09-20T11:29:32.971Z,99979.41
2022-09-20T11:32:23.574Z,99978.41
2022-09-20T11:35:22.512Z,99962.34
2022-09-20T11:38:14.828Z,99955.59
2022-09-20T11:41:02.587Z,99974.91
2022-09-20T11:43:48.326Z,99975.00
2022-09-20T11:46:37.105Z,99972.75
2022-09-20T11:49:28.022Z,99984.28
2022-09-20T11:52:30.308Z,99981.84
2022-09-20T11:55:23.832Z,99959.38
2022-09-20T11:58:10.511Z,99966.25
2022-09-20T12:00:56.919Z,99976.50
2022-09-20T12:03:45.157Z,99984.84
2022-09-20T12:06:35.070Z,99978.81
2022-09-20T12:09:29.179Z,99971.06
2022-09-20T12:12:20.223Z,99965.28
2022-09-20T12:15:07.820Z,99978.72
2022-09-20T12:18:42.195Z,99967.63
2022-09-20T12:21:26.041Z,99987.19
2022-09-20T12:24:22.893Z,99970.22
2022-09-20T12:27:24.624Z,99983.25
2022-09-20T12:30:18.122Z,99982.69
2022-09-20T12:33:02.297Z,99969.28
2022-09-20T12:36:02.762Z,99937.88
2022-09-20T12:39:01.588Z,99968.63
2022-09-20T12:41:49.348Z,99956.50
2022-09-20T12:44:37.934Z,99983.31
2022-09-20T12:47:24.793Z,99996.03
2022-09-20T12:50:32.547Z,99986.38
2022-09-20T12:53:17.415Z,99989.56
2022-09-20T12:56:07.820Z,99964.06
2022-09-20T12:58:54.796Z,99982.06
2022-09-20T13:01:41.281Z,99951.06
2022-09-20T13:04:57.415Z,99980.06
2022-09-20T13:08:00.379Z,99979.03
2022-09-20T13:10:49.920Z,99969.59
2022-09-20T13:13:41.223Z,99974.97
2022-09-20T13:16:31.490Z,99954.53
2022-09-20T13:19:18.825Z,99973.72
2022-09-20T13:22:05.680Z,99968.75
2022-09-20T13:24:51.858Z,99967.44
2022-09-20T13:27:39.785Z,99953.25
2022-09-20T13:30:26.926Z,99960.31
2022-09-20T13:33:23.571Z,99971.72
2022-09-20T13:36:07.319Z,99969.13
2022-09-20T13:38:51.454Z,99972.84
2022-09-20T13:41:35.754Z,99975.09
2022-09-20T13:44:20.952Z,99981.09
2022-09-20T13:47:22.843Z,99978.34
2022-09-20T13:50:19.261Z,99977.22
2022-09-20T13:53:33.256Z,99960.59
2022-09-20T13:56:23.676Z,99983.19
2022-09-20T13:59:07.644Z,99978.63
2022-09-20T14:01:53.255Z,99946.56
2022-09-20T14:04:40.547Z,99976.06
2022-09-20T14:07:28.148Z,99986.66
2022-09-20T14:10:31.757Z,99992.69
2022-09-20T14:13:17.390Z,99990.50
2022-09-20T14:16:01.904Z,99996.00
2022-09-20T14:18:47.221Z,99990.16
2022-09-20T14:21:34.723Z,100001.41
2022-09-20T14:24:30.410Z,100000.09
2022-09-20T14:27:21.927Z,99995.34
2022-09-20T14:30:07.166Z,99991.34
2022-09-20T14:32:54.571Z,99992.47
2022-09-20T14:35:38.296Z,99976.00
2022-09-20T14:38:26.553Z,99990.84
2022-09-20T14:41:12.012Z,100004.22
2022-09-20T14:43:58.090Z,99956.06
2022-09-20T14:46:42.010Z,100012.50
2022-09-20T14:49:34.003Z,100000.38
2022-09-20T14:52:34.533Z,100002.41
2022-09-20T14:55:28.334Z,100012.22
2022-09-20T14:58:16.138Z,100013.22
2022-09-20T15:01:05.192Z,100015.44
2022-09-20T15:03:49.061Z,100018.38
2022-09-20T15:06:32.953Z,99976.66
2022-09-20T15:09:16.897Z,100002.59
2022-09-20T15:12:02.485Z,100017.75
2022-09-20T15:14:48.397Z,100018.38
2022-09-20T15:17:32.148Z,100021.31
2022-09-20T15:20:23.734Z,100027.19
2022-09-20T15:23:08.640Z,100017.88
2022-09-20T15:25:53.907Z,100014.09
2022-09-20T15:28:37.724Z,100014.19
2022-09-20T15:31:22.981Z,100024.91
2022-09-20T15:34:07.251Z,100007.56
2022-09-20T15:36:51.444Z,100025.19
2022-09-20T15:39:35.197Z,100035.50
2022-09-20T15:42:21.462Z,100001.69
2022-09-20T15:45:09.119Z,100029.97
2022-09-20T15:47:55.552Z,100019.47
2022-09-20T15:50:39.572Z,100037.78
2022-09-20T15:53:23.581Z,100032.19
2022-09-20T15:56:16.495Z,100022.66
2022-09-20T15:59:03.274Z,100024.97
2022-09-20T16:01:48.265Z,100031.50
2022-09-20T16:04:34.915Z,100034.22
2022-09-20T16:07:24.221Z,100034.47
2022-09-20T16:10:09.210Z,100038.69
2022-09-20T16:12:56.483Z,100035.53
2022-09-20T16:15:40.208Z,100046.47
2022-09-20T16:18:41.809Z,100047.97
2022-09-20T16:21:26.971Z,100027.00
2022-09-20T16:24:12.600Z,100054.38
2022-09-20T16:26:56.636Z,100045.47
2022-09-20T16:29:40.415Z,100056.44
2022-09-20T16:32:24.199Z,100052.78
2022-09-20T16:35:08.886Z,100041.13
2022-09-20T16:37:54.034Z,100038.75
2022-09-20T16:40:38.109Z,100062.97
2022-09-20T16:43:25.927Z,100043.97
2022-09-20T16:46:11.967Z,100047.50
2022-09-20T16:48:56.956Z,100071.25
2022-09-20T16:51:42.988Z,100042.09
2022-09-20T16:54:31.741Z,100039.13
2022-09-20T16:57:16.171Z,100072.19
2022-09-20T17:00:00.347Z,100080.84
2022-09-20T17:02:47.762Z,100082.84
2022-09-20T17:05:31.778Z,100079.34
2022-09-20T17:08:15.600Z,100057.81
2022-09-20T17:11:03.872Z,100083.50
2022-09-20T17:13:48.098Z,100088.31
2022-09-20T17:16:34.039Z,100087.06
2022-09-20T17:19:19.508Z,100097.41
2022-09-20T17:22:03.209Z,100097.94
2022-09-20T17:24:47.080Z,100093.56
2022-09-20T17:27:33.663Z,100058.25
2022-09-20T17:30:17.628Z,100057.00
2022-09-20T17:33:01.443Z,100092.28
2022-09-20T17:35:52.438Z,100103.22
2022-09-20T17:38:36.825Z,100093.88
2022-09-20T17:41:21.819Z,100095.69
2022-09-20T17:44:08.390Z,100111.72
2022-09-20T17:46:54.077Z,100049.16
2022-09-20T17:49:38.504Z,100095.78
2022-09-20T17:52:22.313Z,100120.16
2022-09-20T17:55:07.019Z,100116.31
2022-09-20T17:57:50.780Z,100119.03
2022-09-20T18:00:37.192Z,100116.63
2022-09-20T18:03:21.309Z,100128.44
2022-09-20T18:06:16.834Z,100131.16
2022-09-20T18:09:02.857Z,100119.94
2022-09-20T18:11:49.530Z,100137.16
2022-09-20T18:14:33.422Z,100135.66
2022-09-20T18:17:18.743Z,100131.28
2022-09-20T18:20:02.756Z,100134.78
2022-09-20T18:22:49.309Z,100091.19
2022-09-20T18:25:53.937Z,100143.25
2022-09-20T18:28:37.755Z,100141.50
2022-09-20T18:31:22.977Z,100140.34
2022-09-20T18:34:09.888Z,100141.41
2022-09-20T18:36:55.593Z,100123.19
2022-09-20T18:39:43.014Z,100142.38
2022-09-20T18:42:26.697Z,100151.50
2022-09-20T18:45:11.477Z,100149.16
2022-09-20T18:47:57.324Z,100154.41
2022-09-20T18:50:42.484Z,100149.59
2022-09-20T18:53:27.872Z,100150.81
2022-09-20T18:56:22.617Z,100153.72
2022-09-20T18:59:08.515Z,100152.91
2022-09-20T19:02:13.565Z,100158.16
2022-09-20T19:05:18.516Z,100146.66
2022-09-20T19:08:19.106Z,100147.41
2022-09-20T19:11:09.122Z,100144.91
2022-09-20T19:13:58.740Z,100146.53
2022-09-20T19:16:43.791Z,100145.03
2022-09-20T19:19:47.108Z,100143.31
2022-09-20T19:22:36.918Z,100145.75
2022-09-20T19:25:29.812Z,100151.53
2022-09-20T19:28:16.056Z,100148.72
2022-09-20T19:31:00.412Z,100146.44
2022-09-20T19:33:47.062Z,100155.06
2022-09-20T19:36:40.072Z,100152.72
2022-09-20T19:39:31.158Z,100151.66
2022-09-20T19:42:26.637Z,100137.44
2022-09-20T19:45:22.054Z,100159.13
2022-09-20T19:48:14.064Z,100109.03
2022-09-20T19:50:58.583Z,100118.38
2022-09-20T19:53:42.878Z,100144.13
2022-09-20T19:56:29.563Z,100152.75
2022-09-20T19:59:17.407Z,100161.75
2022-09-20T20:02:02.065Z,100159.56
2022-09-20T20:04:46.429Z,100162.72
2022-09-20T20:07:37.926Z,100156.91
2022-09-20T20:10:28.130Z,100166.56
2022-09-20T20:13:37.497Z,100167.03
2022-09-20T20:16:33.691Z,100168.19
2022-09-20T20:19:37.373Z,100172.94
2022-09-20T20:22:38.938Z,100184.63
2022-09-20T20:25:29.703Z,100155.84
2022-09-20T20:28:13.444Z,100178.34
2022-09-20T20:31:00.127Z,100177.91
2022-09-20T20:33:45.457Z,100178.06
2022-09-20T20:36:29.188Z,100188.28
2022-09-20T20:39:13.234Z,100181.63
2022-09-20T20:42:02.376Z,100187.78
2022-09-20T20:44:47.583Z,100182.88
2022-09-20T20:47:31.408Z,100185.81
2022-09-20T20:50:16.604Z,100188.03
2022-09-20T20:53:00.457Z,100175.16
2022-09-20T20:55:44.212Z,100178.78
2022-09-20T20:58:32.368Z,100157.09
2022-09-20T21:01:18.174Z,100148.38
2022-09-20T21:04:03.604Z,100169.03
2022-09-20T21:06:50.472Z,100147.53
2022-09-20T21:09:34.209Z,100189.66
2022-09-20T21:12:18.498Z,100171.56
2022-09-20T21:15:02.422Z,100183.22
2022-09-20T21:17:51.923Z,100177.06
2022-09-20T21:20:35.847Z,100186.72
2022-09-20T21:23:20.974Z,100166.38
2022-09-20T21:26:08.528Z,100186.34
2022-09-20T21:28:54.539Z,100185.19
2022-09-20T21:31:40.357Z,100188.72
2022-09-20T21:34:24.164Z,100190.13
2022-09-20T21:37:07.955Z,100198.56
2022-09-20T21:39:54.515Z,100195.28
2022-09-20T21:42:38.166Z,100197.72
2022-09-20T21:45:24.855Z,100182.56
2022-09-20T21:48:08.543Z,100197.59
2022-09-20T21:50:52.630Z,100198.00
2022-09-20T21:53:37.116Z,100194.13
2022-09-20T21:56:22.342Z,100200.84
2022-09-20T21:59:07.915Z,100198.75
2022-09-20T22:01:51.705Z,100209.09
2022-09-20T22:04:35.546Z,100179.53
2022-09-20T22:07:19.506Z,100203.13
2022-09-20T22:10:03.244Z,100201.97
2022-09-20T22:12:48.625Z,100198.97
2022-09-20T22:15:32.589Z,100203.19
2022-09-20T22:18:16.353Z,100207.00
2022-09-20T22:21:04.535Z,100204.72
2022-09-20T22:23:50.531Z,100210.22
2022-09-20T22:26:36.959Z,100210.13
2022-09-20T22:29:22.264Z,100212.84
2022-09-20T22:32:06.103Z,100194.50
2022-09-20T22:34:49.859Z,100201.50
2022-09-20T22:37:33.651Z,100179.53
2022-09-20T22:40:17.611Z,100193.56
2022-09-20T22:43:01.312Z,100186.22
2022-09-20T22:45:46.497Z,100181.38
2022-09-20T22:48:30.547Z,100182.94
2022-09-20T22:51:16.744Z,100171.19
2022-09-20T22:54:00.967Z,100170.78
2022-09-20T22:56:44.709Z,100165.59
2022-09-20T22:59:28.424Z,100161.50
2022-09-20T23:02:13.551Z,100176.75
2022-09-20T23:04:57.373Z,100175.59
2022-09-20T23:07:41.137Z,100172.03
2022-09-20T23:10:24.954Z,100174.44
2022-09-20T23:13:08.679Z,100171.03
2022-09-20T23:15:52.399Z,100164.59
2022-09-20T23:18:37.545Z,100149.81
2022-09-20T23:21:21.627Z,100122.94
2022-09-20T23:24:07.743Z,100159.66
2022-09-20T23:26:51.534Z,100138.44
2022-09-20T23:29:35.335Z,100150.38
2022-09-20T23:32:19.168Z,100140.44
2022-09-20T23:35:04.581Z,100159.75
2022-09-20T23:37:48.383Z,100160.44
2022-09-20T23:40:34.859Z,100147.34
2022-09-20T23:43:18.804Z,100157.00
2022-09-20T23:46:03.350Z,100155.66
2022-09-20T23:48:47.470Z,100116.19
2022-09-20T23:51:32.744Z,100164.22
2022-09-20T23:54:16.530Z,100157.78
2022-09-20T23:57:00.656Z,100156.16
2022-09-20T23:59:44.400Z,100163.81
